Pagrindinis puslapis
METAR-TAF:

METAR-TAF

Oro uostai :

Brindizis, Italija

platuma: 40-39N, ilguma: 017-57E, Aukštis: 15 m

Dabartinis oras

Ataskaita buvo paskelbta 23 minutes, ne 18:50 UTC
Vėjas 5 kt iš Vakarų
Temperatūra 20°C
Drėgmė 94%
Slėgis 1016 hPa
Matomumas 10 km arba daugiau
Mažai debesys ne aukštis 2000 ft
lietus

METAR: LIBR 191850Z 26005KT 9999 -RA FEW020 20/19 Q1016

Laikas: 21:13 (19:13 UTC)

Prognozė

Ataskaita buvo paskelbta 2 valandos ir 13 minutes, ne 17:00 UTC
Prognozė galioja nuo 19 metu 18 UTC su 20 metu 18 UTC
Vėjas 8 kt iš Pietų
Matomumas 10 km arba daugiau
Išsisklaidę debesys ne aukštis 4000 ft
Laikinai
nuo 19 metu 18 UTC su 20 metu 03 UTC
Matomumas: 3000 m
perkūnija, lietus
Tapsmas
nuo 19 metu 22 UTC su 20 metu 01 UTC
Vėjas 15 kt iš Šiaurės/Šiaurės Rytų
Laikinai
nuo 20 metu 12 UTC su 20 metu 18 UTC
Vėjas 16 kt iš Šiaurės su gūsio iki 26 kt

TAF: LIBR 191700Z 1918/2018 18008KT 9999 SCT040 TEMPO 1918/2003 3000 TSRA BECMG 1922/2001 02015KT TEMPO 2012/2018 35016G26KT

Orai ataskaitas ir orų prognozės (METAR, TAF).

turimą stotys yra geltonos ir raudonos taškus žemėlapyje.

Perkelti pele per norėdami pamatyti stoties vardą.

Tada spustelėkite, norėdami matyti oro stebėjimo ir prognozės.

Norėdami pakeisti žemėlapį: spustelėkite ant žalios mygtukų su juodo kryžiaus žemyn,; žalią mygtuką su brūkšneliu, jei norite nutolinti; arba žalių rodyklių gretimoms žemėlapius.


METAR-TAF: